createdAt,value
2022-09-20T00:00:45.313Z,3.80
2022-09-20T00:03:12.514Z,3.87
2022-09-20T00:05:39.689Z,3.80
2022-09-20T00:08:07.661Z,3.80
2022-09-20T00:10:36.104Z,3.77
2022-09-20T00:13:02.979Z,3.73
2022-09-20T00:15:29.521Z,3.83
2022-09-20T00:17:56.102Z,3.80
2022-09-20T00:20:22.623Z,3.90
2022-09-20T00:22:49.607Z,3.90
2022-09-20T00:25:16.606Z,3.80
2022-09-20T00:27:42.944Z,3.80
2022-09-20T00:30:09.733Z,3.83
2022-09-20T00:32:36.033Z,3.93
2022-09-20T00:35:08.312Z,3.80
2022-09-20T00:37:35.064Z,3.80
2022-09-20T00:40:01.965Z,3.77
2022-09-20T00:42:29.113Z,3.80
2022-09-20T00:44:55.429Z,4.13
2022-09-20T00:47:29.166Z,4.00
2022-09-20T00:50:01.402Z,3.70
2022-09-20T00:52:27.902Z,3.87
2022-09-20T00:54:54.487Z,3.80
2022-09-20T00:57:20.971Z,4.00
2022-09-20T00:59:49.181Z,3.97
2022-09-20T01:02:18.516Z,4.00
2022-09-20T01:04:46.420Z,4.00
2022-09-20T01:07:15.068Z,4.00
2022-09-20T01:09:41.266Z,4.00
2022-09-20T01:12:10.611Z,3.80
2022-09-20T01:14:36.942Z,4.03
2022-09-20T01:17:04.822Z,4.00
2022-09-20T01:19:47.359Z,4.03
2022-09-20T01:22:19.602Z,4.00
2022-09-20T01:24:56.518Z,3.97
2022-09-20T01:27:26.175Z,4.00
2022-09-20T01:29:52.392Z,3.87
2022-09-20T01:32:20.627Z,4.00
2022-09-20T01:34:48.183Z,4.10
2022-09-20T01:37:19.571Z,3.87
2022-09-20T01:39:45.810Z,4.10
2022-09-20T01:42:13.378Z,4.20
2022-09-20T01:44:42.582Z,4.03
2022-09-20T01:47:08.831Z,3.90
2022-09-20T01:49:44.041Z,3.70
2022-09-20T01:52:25.535Z,4.10
2022-09-20T01:55:05.249Z,3.90
2022-09-20T01:57:40.697Z,3.70
2022-09-20T02:00:10.731Z,3.73
2022-09-20T02:02:43.015Z,4.00
2022-09-20T02:05:28.239Z,4.00
2022-09-20T02:07:57.561Z,4.10
2022-09-20T02:10:36.006Z,3.80
2022-09-20T02:13:10.974Z,3.83
2022-09-20T02:15:54.749Z,3.87
2022-09-20T02:18:20.977Z,4.10
2022-09-20T02:20:47.246Z,3.80
2022-09-20T02:23:19.564Z,4.00
2022-09-20T02:25:45.796Z,4.10
2022-09-20T02:28:32.335Z,3.93
2022-09-20T02:30:58.563Z,4.00
2022-09-20T02:33:52.266Z,3.93
2022-09-20T02:36:36.812Z,4.00
2022-09-20T02:39:09.046Z,4.10
2022-09-20T02:41:35.276Z,4.00
2022-09-20T02:44:12.512Z,3.90
2022-09-20T02:46:48.057Z,3.90
2022-09-20T02:49:23.627Z,3.73
2022-09-20T02:51:52.989Z,4.00
2022-09-20T02:54:38.135Z,3.83
2022-09-20T02:57:23.135Z,3.90
2022-09-20T02:59:49.327Z,4.10
2022-09-20T03:02:21.746Z,3.90
2022-09-20T03:04:56.410Z,4.10
2022-09-20T03:07:48.971Z,3.37
2022-09-20T03:10:25.509Z,4.20
2022-09-20T03:13:06.989Z,4.00
2022-09-20T03:15:48.541Z,4.00
2022-09-20T03:18:16.047Z,4.20
2022-09-20T03:21:01.011Z,4.20
2022-09-20T03:23:36.515Z,3.93
2022-09-20T03:26:07.853Z,4.10
2022-09-20T03:28:38.360Z,4.10
2022-09-20T03:31:22.826Z,4.20
2022-09-20T03:34:00.795Z,4.30
2022-09-20T03:36:46.485Z,4.20
2022-09-20T03:39:39.376Z,4.07
2022-09-20T03:42:17.814Z,4.20
2022-09-20T03:44:52.978Z,4.10
2022-09-20T03:47:25.392Z,4.20
2022-09-20T03:50:07.478Z,4.30
2022-09-20T03:52:45.388Z,4.00
2022-09-20T03:55:32.206Z,4.20
2022-09-20T03:58:11.182Z,4.10
2022-09-20T04:00:57.474Z,4.17
2022-09-20T04:03:42.752Z,4.20
2022-09-20T04:06:27.931Z,4.40
2022-09-20T04:09:12.635Z,4.20
2022-09-20T04:11:48.779Z,4.00
2022-09-20T04:14:19.578Z,4.17
2022-09-20T04:16:52.096Z,4.20
2022-09-20T04:19:40.422Z,4.13
2022-09-20T04:22:08.117Z,4.93
2022-09-20T04:24:41.916Z,3.90
2022-09-20T04:27:11.136Z,3.90
2022-09-20T04:29:40.710Z,4.30
2022-09-20T04:32:14.449Z,3.90
2022-09-20T04:35:08.305Z,3.97
2022-09-20T04:37:36.275Z,4.27
2022-09-20T04:40:09.127Z,3.70
2022-09-20T04:42:38.543Z,4.07
2022-09-20T04:45:13.910Z,4.20
2022-09-20T04:47:58.919Z,4.10
2022-09-20T04:50:28.349Z,4.30
2022-09-20T04:52:57.541Z,4.10
2022-09-20T04:55:44.307Z,4.20
2022-09-20T04:58:10.574Z,4.20
2022-09-20T05:00:55.629Z,4.30
2022-09-20T05:03:30.193Z,3.93
2022-09-20T05:05:59.413Z,4.00
2022-09-20T05:08:44.517Z,4.33
2022-09-20T05:11:20.791Z,4.23
2022-09-20T05:14:06.005Z,3.90
2022-09-20T05:16:50.737Z,4.20
2022-09-20T05:19:16.982Z,4.10
2022-09-20T05:21:52.851Z,4.20
2022-09-20T05:24:42.557Z,4.20
2022-09-20T05:27:08.757Z,4.17
2022-09-20T05:29:50.597Z,4.10
2022-09-20T05:32:20.178Z,4.20
2022-09-20T05:34:51.011Z,4.30
2022-09-20T05:37:36.794Z,4.00
2022-09-20T05:40:13.135Z,4.10
2022-09-20T05:42:47.178Z,4.40
2022-09-20T05:45:23.443Z,4.20
2022-09-20T05:48:08.474Z,4.13
2022-09-20T05:50:37.947Z,4.30
2022-09-20T05:53:13.283Z,3.70
2022-09-20T05:55:49.395Z,4.57
2022-09-20T05:58:34.455Z,4.00
2022-09-20T06:01:14.879Z,4.23
2022-09-20T06:03:46.423Z,4.40
2022-09-20T06:06:15.431Z,4.23
2022-09-20T06:09:00.548Z,4.00
2022-09-20T06:11:46.869Z,4.20
2022-09-20T06:14:22.562Z,4.10
2022-09-20T06:17:02.786Z,4.00
2022-09-20T06:19:29.027Z,4.10
2022-09-20T06:21:56.697Z,4.03
2022-09-20T06:24:23.841Z,4.20
2022-09-20T06:26:51.865Z,4.07
2022-09-20T06:29:19.914Z,4.10
2022-09-20T06:31:46.183Z,3.80
2022-09-20T06:34:15.181Z,3.90
2022-09-20T06:37:04.697Z,3.87
2022-09-20T06:40:08.548Z,3.87
2022-09-20T06:42:36.121Z,4.10
2022-09-20T06:45:02.355Z,4.10
2022-09-20T06:47:29.177Z,4.00
2022-09-20T06:49:56.459Z,4.10
2022-09-20T06:52:23.047Z,3.93
2022-09-20T06:54:54.283Z,3.70
2022-09-20T06:57:24.989Z,3.70
2022-09-20T06:59:51.323Z,3.87
2022-09-20T07:02:17.601Z,3.90
2022-09-20T07:04:45.150Z,4.33
2022-09-20T07:07:15.299Z,4.23
2022-09-20T07:09:41.697Z,4.00
2022-09-20T07:12:10.770Z,4.00
2022-09-20T07:14:37.341Z,4.00
2022-09-20T07:17:03.675Z,3.87
2022-09-20T07:19:30.097Z,4.13
2022-09-20T07:21:56.494Z,4.00
2022-09-20T07:24:22.864Z,3.70
2022-09-20T07:26:56.579Z,3.87
2022-09-20T07:29:23.038Z,4.00
2022-09-20T07:31:50.820Z,5.07
2022-09-20T07:34:20.328Z,4.10
2022-09-20T07:36:50.402Z,3.93
2022-09-20T07:39:17.201Z,3.80
2022-09-20T07:41:48.584Z,3.63
2022-09-20T07:44:24.232Z,3.70
2022-09-20T07:46:53.934Z,3.80
2022-09-20T07:49:21.341Z,3.67
2022-09-20T07:51:47.984Z,3.70
2022-09-20T07:54:14.330Z,3.83
2022-09-20T07:56:40.785Z,3.70
2022-09-20T07:59:07.176Z,3.70
2022-09-20T08:01:33.694Z,3.67
2022-09-20T08:04:00.088Z,3.43
2022-09-20T08:06:26.835Z,3.80
2022-09-20T08:08:53.234Z,3.70
2022-09-20T08:11:21.056Z,3.47
2022-09-20T08:14:06.167Z,3.73
2022-09-20T08:16:37.308Z,3.67
2022-09-20T08:19:03.818Z,3.50
2022-09-20T08:21:33.933Z,3.50
2022-09-20T08:24:00.682Z,3.40
2022-09-20T08:26:27.773Z,3.50
2022-09-20T08:28:55.202Z,3.40
2022-09-20T08:31:24.259Z,3.30
2022-09-20T08:33:51.730Z,4.70
2022-09-20T08:36:19.302Z,3.50
2022-09-20T08:41:41.968Z,3.30
2022-09-20T08:44:15.705Z,3.50
2022-09-20T08:46:43.508Z,3.50
2022-09-20T08:49:16.701Z,3.50
2022-09-20T08:51:50.702Z,3.40
2022-09-20T08:54:17.024Z,3.40
2022-09-20T08:56:45.468Z,3.17
2022-09-20T08:59:14.934Z,3.40
2022-09-20T09:01:41.678Z,3.50
2022-09-20T09:04:18.792Z,3.70
2022-09-20T09:06:46.189Z,3.27
2022-09-20T09:09:20.351Z,3.50
2022-09-20T09:11:47.783Z,3.30
2022-09-20T09:14:48.620Z,3.27
2022-09-20T09:17:19.583Z,3.23
2022-09-20T09:19:45.915Z,3.30
2022-09-20T09:22:17.406Z,3.30
2022-09-20T09:24:43.861Z,3.30
2022-09-20T09:27:16.398Z,3.10
2022-09-20T09:29:53.495Z,3.40
2022-09-20T09:32:21.925Z,3.40
2022-09-20T09:34:48.338Z,3.20
2022-09-20T09:37:26.407Z,3.17
2022-09-20T09:40:17.364Z,3.27
2022-09-20T09:42:57.550Z,3.20
2022-09-20T09:45:28.882Z,3.20
2022-09-20T09:47:56.253Z,3.10
2022-09-20T09:50:24.128Z,3.10
2022-09-20T09:53:00.263Z,3.07
2022-09-20T09:55:55.929Z,3.17
2022-09-20T09:58:25.029Z,3.30
2022-09-20T10:00:52.318Z,3.00
2022-09-20T10:03:26.216Z,3.17
2022-09-20T10:06:04.776Z,3.27
2022-09-20T10:08:43.440Z,3.20
2022-09-20T10:11:30.159Z,3.27
2022-09-20T10:14:04.390Z,3.30
2022-09-20T10:16:39.541Z,3.07
2022-09-20T10:19:09.027Z,3.00
2022-09-20T10:21:39.036Z,3.00
2022-09-20T10:24:13.092Z,3.17
2022-09-20T10:26:51.747Z,2.93
2022-09-20T10:29:40.620Z,2.83
2022-09-20T10:32:07.027Z,3.00
2022-09-20T10:34:52.111Z,3.00
2022-09-20T10:37:28.417Z,2.90
2022-09-20T10:40:03.947Z,2.90
2022-09-20T10:43:05.759Z,3.00
2022-09-20T10:48:38.372Z,2.93
2022-09-20T10:51:25.687Z,2.90
2022-09-20T10:54:17.813Z,3.00
2022-09-20T10:56:47.298Z,2.90
2022-09-20T10:59:20.838Z,2.90
2022-09-20T11:02:02.048Z,3.20
2022-09-20T11:04:39.932Z,3.10
2022-09-20T11:07:15.436Z,3.13
2022-09-20T11:09:50.030Z,3.00
2022-09-20T11:12:23.223Z,2.90
2022-09-20T11:14:53.887Z,3.10
2022-09-20T11:17:31.986Z,3.00
2022-09-20T11:20:08.041Z,3.10
2022-09-20T11:22:40.253Z,3.00
2022-09-20T11:25:20.354Z,3.00
2022-09-20T11:27:58.607Z,2.97
2022-09-20T11:30:25.244Z,3.20
2022-09-20T11:32:53.858Z,3.10
2022-09-20T11:35:32.604Z,3.30
2022-09-20T11:37:59.062Z,3.10
2022-09-20T11:40:28.440Z,3.00
2022-09-20T11:42:57.491Z,2.97
2022-09-20T11:45:28.417Z,3.00
2022-09-20T11:47:59.554Z,3.00
2022-09-20T11:50:41.262Z,3.00
2022-09-20T11:53:17.454Z,2.97
2022-09-20T11:56:03.009Z,2.87
2022-09-20T11:58:29.658Z,2.90
2022-09-20T12:00:58.691Z,3.10
2022-09-20T12:03:28.552Z,2.87
2022-09-20T12:06:02.220Z,2.80
2022-09-20T12:08:30.779Z,3.00
2022-09-20T12:11:00.021Z,2.70
2022-09-20T12:13:27.776Z,2.90
2022-09-20T12:16:02.200Z,3.10
2022-09-20T12:18:34.783Z,3.00
2022-09-20T12:21:01.263Z,2.90
2022-09-20T12:23:43.038Z,3.00
2022-09-20T12:26:11.021Z,3.10
2022-09-20T12:28:39.419Z,3.07
2022-09-20T12:31:33.656Z,3.13
2022-09-20T12:34:02.337Z,2.90
2022-09-20T12:36:30.459Z,2.83
2022-09-20T12:39:00.667Z,2.90
2022-09-20T12:41:29.899Z,2.90
2022-09-20T12:44:00.243Z,2.80
2022-09-20T12:46:35.018Z,3.00
2022-09-20T12:49:39.952Z,2.97
2022-09-20T12:52:38.890Z,2.90
2022-09-20T12:55:10.234Z,3.07
2022-09-20T12:57:38.107Z,3.00
2022-09-20T13:00:08.458Z,2.83
2022-09-20T13:02:42.084Z,2.90
2022-09-20T13:05:41.021Z,3.00
2022-09-20T13:08:13.721Z,2.80
2022-09-20T13:10:59.048Z,2.70
2022-09-20T13:13:40.968Z,2.70
2022-09-20T13:16:07.594Z,2.60
2022-09-20T13:18:36.680Z,2.60
2022-09-20T13:21:06.898Z,2.40
2022-09-20T13:25:52.655Z,2.70
2022-09-20T13:27:34.689Z,2.30
2022-09-20T13:30:17.571Z,2.30
2022-09-20T13:32:44.178Z,2.30
2022-09-20T13:35:10.572Z,2.30
2022-09-20T13:37:38.106Z,2.20
2022-09-20T13:40:06.830Z,2.30
2022-09-20T13:42:35.708Z,2.30
2022-09-20T13:45:03.554Z,2.20
2022-09-20T13:47:31.335Z,2.30
2022-09-20T13:50:17.315Z,2.40
2022-09-20T13:52:48.590Z,2.40
2022-09-20T13:55:32.253Z,2.40
2022-09-20T13:58:21.874Z,2.40
2022-09-20T14:00:53.366Z,2.37
2022-09-20T14:03:23.507Z,2.53
2022-09-20T14:05:51.925Z,2.40
2022-09-20T14:08:30.064Z,2.40
2022-09-20T14:11:16.951Z,2.20
2022-09-20T14:13:50.858Z,2.40
2022-09-20T14:16:18.739Z,2.40
2022-09-20T14:18:48.323Z,2.43
2022-09-20T14:21:17.948Z,2.37
2022-09-20T14:23:58.319Z,2.33
2022-09-20T14:26:25.798Z,2.33
2022-09-20T14:28:52.612Z,2.40
2022-09-20T14:31:19.010Z,2.60
2022-09-20T14:33:54.249Z,2.40
2022-09-20T14:36:26.323Z,2.50
2022-09-20T14:38:54.396Z,2.53
2022-09-20T14:42:07.200Z,2.70
2022-09-20T14:44:35.038Z,2.50
2022-09-20T14:47:13.240Z,2.70
2022-09-20T14:49:43.167Z,2.77
2022-09-20T14:52:44.274Z,2.80
2022-09-20T14:55:10.560Z,2.70
2022-09-20T14:57:37.570Z,2.80
2022-09-20T15:00:08.001Z,2.83
2022-09-20T15:02:35.214Z,2.63
2022-09-20T15:05:38.099Z,2.60
2022-09-20T15:08:14.995Z,2.73
2022-09-20T15:13:45.728Z,2.80
2022-09-20T15:16:35.529Z,2.77
2022-09-20T15:19:33.024Z,2.73
2022-09-20T15:22:04.907Z,2.70
2022-09-20T15:24:33.598Z,2.77
2022-09-20T15:27:02.386Z,2.60
2022-09-20T15:29:31.824Z,2.50
2022-09-20T15:32:05.931Z,2.40
2022-09-20T15:34:35.360Z,2.50
2022-09-20T15:37:01.757Z,2.20
2022-09-20T15:39:28.125Z,2.20
2022-09-20T15:41:54.629Z,2.10
2022-09-20T15:44:21.018Z,2.00
2022-09-20T15:46:49.079Z,2.00
2022-09-20T15:49:15.734Z,1.90
2022-09-20T15:51:42.211Z,1.90
2022-09-20T15:54:12.938Z,1.97
2022-09-20T15:56:42.446Z,1.90
2022-09-20T15:59:10.291Z,1.80
2022-09-20T16:01:38.142Z,1.90
2022-09-20T16:04:06.097Z,1.73
2022-09-20T16:06:32.836Z,1.90
2022-09-20T16:08:59.389Z,1.80
2022-09-20T16:11:27.974Z,1.80
2022-09-20T16:14:00.464Z,1.90
2022-09-20T16:16:28.329Z,1.90
2022-09-20T16:19:13.601Z,2.00
2022-09-20T16:21:41.005Z,2.03
2022-09-20T16:24:08.660Z,2.20
2022-09-20T16:26:35.547Z,2.20
2022-09-20T16:29:07.674Z,2.10
2022-09-20T16:31:43.114Z,2.30
2022-09-20T16:34:31.862Z,2.30
2022-09-20T16:37:00.917Z,2.30
2022-09-20T16:39:27.898Z,2.30
2022-09-20T16:41:57.221Z,2.40
2022-09-20T16:44:24.017Z,2.30
2022-09-20T16:46:50.351Z,2.30
2022-09-20T16:49:17.239Z,2.40
2022-09-20T16:51:44.371Z,2.50
2022-09-20T16:54:12.871Z,2.30
2022-09-20T16:56:46.237Z,2.40
2022-09-20T16:59:13.522Z,2.47
2022-09-20T17:01:40.878Z,2.50
2022-09-20T17:04:08.444Z,2.40
2022-09-20T17:06:35.920Z,2.50
2022-09-20T17:09:03.520Z,2.60
2022-09-20T17:11:32.794Z,2.40
2022-09-20T17:13:59.079Z,2.40
2022-09-20T17:19:38.772Z,2.60
2022-09-20T17:22:06.941Z,2.73
2022-09-20T17:24:33.799Z,2.77
2022-09-20T17:27:01.820Z,2.80
2022-09-20T17:29:28.425Z,2.90
2022-09-20T17:31:59.965Z,2.80
2022-09-20T17:34:30.205Z,2.80
2022-09-20T17:36:56.903Z,2.67
2022-09-20T17:39:23.646Z,2.70
2022-09-20T17:41:50.711Z,2.80
2022-09-20T17:44:17.331Z,2.90
2022-09-20T17:46:45.157Z,2.77
2022-09-20T17:49:12.763Z,2.90
2022-09-20T17:51:46.139Z,2.90
2022-09-20T17:54:16.549Z,2.80
2022-09-20T17:56:44.746Z,2.93
2022-09-20T17:59:12.144Z,2.80
2022-09-20T18:01:39.394Z,2.90
2022-09-20T18:04:06.990Z,2.90
2022-09-20T18:06:36.954Z,2.80
2022-09-20T18:09:07.913Z,2.80
2022-09-20T18:11:45.628Z,2.80
2022-09-20T18:14:13.298Z,2.80
2022-09-20T18:16:48.426Z,3.10
2022-09-20T18:19:24.105Z,3.10
2022-09-20T18:21:50.996Z,2.90
2022-09-20T18:24:26.208Z,3.00
2022-09-20T18:26:52.802Z,3.07
2022-09-20T18:29:19.716Z,2.73
2022-09-20T18:31:49.387Z,2.80
2022-09-20T18:34:23.282Z,2.90
2022-09-20T18:36:54.392Z,2.97
2022-09-20T18:39:24.684Z,3.00
2022-09-20T18:42:02.993Z,2.90
2022-09-20T18:44:34.455Z,2.87
2022-09-20T18:47:07.716Z,3.00
2022-09-20T18:49:37.080Z,2.70
2022-09-20T18:52:18.022Z,2.80
2022-09-20T18:54:50.412Z,2.90
2022-09-20T18:57:33.308Z,2.90
2022-09-20T19:00:28.060Z,3.07
2022-09-20T19:03:22.736Z,2.90
2022-09-20T19:09:30.405Z,2.90
2022-09-20T19:12:53.767Z,2.90
2022-09-20T19:19:35.939Z,3.00
2022-09-20T19:22:52.066Z,2.90
2022-09-20T19:32:33.709Z,3.20
2022-09-20T19:35:18.628Z,3.00
2022-09-20T19:38:34.899Z,3.10
2022-09-20T19:41:31.635Z,3.00
2022-09-20T19:44:09.963Z,3.00
2022-09-20T19:46:46.317Z,3.20
2022-09-20T19:49:36.020Z,3.20
2022-09-20T19:52:06.468Z,3.20
2022-09-20T19:54:35.294Z,3.30
2022-09-20T19:57:06.886Z,3.17
2022-09-20T19:59:38.200Z,3.20
2022-09-20T20:02:05.078Z,2.90
2022-09-20T20:04:37.684Z,3.20
2022-09-20T20:07:13.201Z,3.20
2022-09-20T20:09:52.641Z,3.40
2022-09-20T20:12:36.287Z,3.20
2022-09-20T20:15:02.791Z,3.00
2022-09-20T20:17:38.531Z,3.30
2022-09-20T20:20:17.691Z,3.30
2022-09-20T20:22:46.076Z,3.43
2022-09-20T20:25:37.783Z,3.30
2022-09-20T20:28:05.850Z,3.20
2022-09-20T20:30:36.915Z,3.40
2022-09-20T20:33:09.728Z,3.47
2022-09-20T20:35:39.286Z,3.30
2022-09-20T20:38:14.531Z,3.30
2022-09-20T20:40:48.248Z,3.30
2022-09-20T20:43:14.980Z,3.30
2022-09-20T20:45:54.395Z,3.20
2022-09-20T20:48:26.038Z,3.20
2022-09-20T20:53:57.568Z,3.40
2022-09-20T20:56:35.293Z,3.20
2022-09-20T20:59:16.958Z,3.30
2022-09-20T21:01:52.689Z,3.30
2022-09-20T21:04:19.057Z,3.40
2022-09-20T21:06:45.477Z,3.33
2022-09-20T21:09:13.288Z,3.30
2022-09-20T21:11:44.055Z,3.30
2022-09-20T21:14:11.951Z,3.10
2022-09-20T21:16:39.485Z,3.30
2022-09-20T21:19:06.067Z,3.40
2022-09-20T21:21:34.965Z,3.50
2022-09-20T21:24:05.718Z,3.50
2022-09-20T21:26:32.939Z,3.40
2022-09-20T21:29:02.873Z,3.30
2022-09-20T21:31:30.341Z,3.60
2022-09-20T21:33:57.015Z,3.30
2022-09-20T21:36:24.859Z,3.60
2022-09-20T21:38:51.190Z,3.47
2022-09-20T21:41:22.394Z,3.33
2022-09-20T21:43:52.041Z,3.60
2022-09-20T21:46:18.910Z,3.80
2022-09-20T21:48:46.115Z,3.67
2022-09-20T21:51:13.894Z,3.80
2022-09-20T21:53:40.750Z,3.50
2022-09-20T21:56:08.635Z,3.40
2022-09-20T21:58:35.167Z,3.70
2022-09-20T22:01:11.901Z,3.70
2022-09-20T22:03:39.852Z,3.40
2022-09-20T22:06:06.761Z,3.70
2022-09-20T22:08:33.270Z,3.67
2022-09-20T22:10:59.519Z,3.40
2022-09-20T22:13:25.901Z,3.70
2022-09-20T22:15:52.334Z,3.67
2022-09-20T22:18:18.671Z,3.43
2022-09-20T22:20:45.608Z,3.80
2022-09-20T22:23:12.198Z,3.80
2022-09-20T22:25:38.536Z,3.60
2022-09-20T22:28:05.331Z,3.80
2022-09-20T22:30:32.810Z,3.80
2022-09-20T22:32:59.311Z,3.60
2022-09-20T22:35:25.549Z,3.90
2022-09-20T22:37:51.820Z,3.70
2022-09-20T22:40:18.173Z,3.80
2022-09-20T22:42:44.479Z,3.70
2022-09-20T22:45:10.954Z,3.93
2022-09-20T22:47:37.174Z,3.90
2022-09-20T22:50:03.516Z,3.60
2022-09-20T22:52:29.884Z,3.80
2022-09-20T22:54:56.183Z,3.90
2022-09-20T22:57:22.456Z,3.97
2022-09-20T22:59:48.715Z,4.00
2022-09-20T23:02:15.012Z,4.07
2022-09-20T23:04:41.296Z,4.03
2022-09-20T23:07:07.751Z,4.10
2022-09-20T23:09:34.065Z,4.10
2022-09-20T23:12:00.413Z,3.97
2022-09-20T23:14:26.708Z,3.90
2022-09-20T23:16:53.228Z,7.00
2022-09-20T23:19:19.692Z,4.20
2022-09-20T23:21:46.011Z,3.90
2022-09-20T23:24:16.460Z,4.20
2022-09-20T23:26:43.186Z,4.30
2022-09-20T23:29:11.155Z,4.27
2022-09-20T23:31:38.520Z,3.73
2022-09-20T23:34:06.066Z,4.40
2022-09-20T23:36:33.510Z,3.97
2022-09-20T23:38:59.925Z,4.00
2022-09-20T23:41:27.036Z,4.03
2022-09-20T23:43:53.619Z,4.10
2022-09-20T23:46:21.163Z,4.20
2022-09-20T23:48:47.486Z,4.20
2022-09-20T23:51:15.011Z,4.07
2022-09-20T23:53:41.832Z,4.10
2022-09-20T23:56:09.530Z,4.20
2022-09-20T23:58:36.469Z,4.17
